createdAt,value
2022-10-23T18:09:59.052Z,18.10
2022-10-23T18:12:25.950Z,18.10
2022-10-23T18:14:52.767Z,18.10
2022-10-23T18:17:19.608Z,18.10
2022-10-23T18:19:46.480Z,18.10
2022-10-23T18:22:13.297Z,18.10
2022-10-23T18:24:40.140Z,17.90
2022-10-23T18:27:07.247Z,17.80
2022-10-23T18:29:34.131Z,17.80
2022-10-23T18:32:01.008Z,17.70
2022-10-23T18:34:27.803Z,17.70
2022-10-23T18:36:55.229Z,17.70
2022-10-23T18:39:24.190Z,17.60
2022-10-23T18:41:54.705Z,17.60
2022-10-23T18:44:22.964Z,17.60
2022-10-23T18:46:50.700Z,17.50
2022-10-23T18:49:19.497Z,17.50
2022-10-23T18:51:47.017Z,17.30
2022-10-23T18:54:15.137Z,17.30
2022-10-23T18:56:42.414Z,17.30
2022-10-23T18:59:14.946Z,17.20
2022-10-23T19:01:42.240Z,17.20
2022-10-23T19:04:11.683Z,17.20
2022-10-23T19:06:39.229Z,17.20
2022-10-23T19:09:08.311Z,17.20
2022-10-23T19:11:35.752Z,17.10
2022-10-23T19:14:02.444Z,17.20
2022-10-23T19:16:38.176Z,17.20
2022-10-23T19:19:25.147Z,17.30
2022-10-23T19:21:52.138Z,17.30
2022-10-23T19:24:23.938Z,17.30
2022-10-23T19:26:50.951Z,17.30
2022-10-23T19:29:19.251Z,17.30
2022-10-23T19:31:49.290Z,17.30
2022-10-23T19:34:16.820Z,17.30
2022-10-23T19:36:43.568Z,17.30
2022-10-23T19:39:10.214Z,17.10
2022-10-23T19:41:37.024Z,17.10
2022-10-23T19:44:03.829Z,17.10
2022-10-23T19:46:30.597Z,17.10
2022-10-23T19:48:57.440Z,17.10
2022-10-23T19:51:24.180Z,17.10
2022-10-23T19:53:53.838Z,17.10
2022-10-23T19:56:20.520Z,17.00
2022-10-23T19:58:47.429Z,17.00
2022-10-23T20:01:15.479Z,17.00
2022-10-23T20:03:43.745Z,17.00
2022-10-23T20:06:11.783Z,17.00
2022-10-23T20:08:38.850Z,17.00
2022-10-23T20:11:06.232Z,17.00
2022-10-23T20:13:33.511Z,16.90
2022-10-23T20:16:00.321Z,17.00
2022-10-23T20:18:27.456Z,17.00
2022-10-23T20:20:54.208Z,16.90
2022-10-23T20:23:20.937Z,16.90
2022-10-23T20:25:48.768Z,16.90
2022-10-23T20:28:15.508Z,16.90
2022-10-23T20:30:42.539Z,16.90
2022-10-23T20:33:09.238Z,16.90
2022-10-23T20:35:42.148Z,16.90
2022-10-23T20:38:08.987Z,16.90
2022-10-23T20:40:35.942Z,17.00
2022-10-23T20:43:03.021Z,17.00
2022-10-23T20:45:29.746Z,17.00
2022-10-23T20:47:56.444Z,17.00
2022-10-23T20:50:23.934Z,17.00
2022-10-23T20:52:50.955Z,17.00
2022-10-23T20:55:18.283Z,17.00
2022-10-23T20:57:45.402Z,17.00
2022-10-23T21:00:12.718Z,17.00
2022-10-23T21:02:39.401Z,17.00
2022-10-23T21:05:06.360Z,17.00
2022-10-23T21:07:34.160Z,16.90
2022-10-23T21:10:02.058Z,16.90
2022-10-23T21:12:28.786Z,16.90
2022-10-23T21:14:55.522Z,16.90
2022-10-23T21:17:22.249Z,16.90
2022-10-23T21:19:49.045Z,16.80
2022-10-23T21:22:15.729Z,16.70
2022-10-23T21:24:42.469Z,16.70
2022-10-23T21:27:09.187Z,16.70
2022-10-23T21:29:35.931Z,16.80
2022-10-23T21:32:02.754Z,16.80
2022-10-23T21:34:29.995Z,16.80
2022-10-23T21:37:13.944Z,16.90
2022-10-23T21:39:42.164Z,16.90
2022-10-23T21:42:08.883Z,16.90
2022-10-23T21:44:35.666Z,16.90
2022-10-23T21:47:02.385Z,16.80
2022-10-23T21:49:29.040Z,16.80
2022-10-23T21:51:55.782Z,16.80
2022-10-23T21:54:22.929Z,16.80
2022-10-23T21:56:50.610Z,16.80
2022-10-23T21:59:18.739Z,16.80
2022-10-23T22:01:46.194Z,16.80
2022-10-23T22:04:17.264Z,16.80
2022-10-23T22:06:44.661Z,16.70
2022-10-23T22:09:15.880Z,16.70
2022-10-23T22:11:42.554Z,16.70
2022-10-23T22:14:09.226Z,16.80
2022-10-23T22:16:35.953Z,16.80
2022-10-23T22:19:02.840Z,16.70
2022-10-23T22:21:30.276Z,16.70
2022-10-23T22:23:57.935Z,16.70
2022-10-23T22:26:24.576Z,16.70
2022-10-23T22:28:51.976Z,16.70
2022-10-23T22:31:20.102Z,16.70
2022-10-23T22:33:47.034Z,16.70
2022-10-23T22:36:13.870Z,16.70
2022-10-23T22:38:40.586Z,16.70
2022-10-23T22:41:07.649Z,16.70
2022-10-23T22:43:34.399Z,16.60
2022-10-23T22:46:05.725Z,16.60
2022-10-23T22:48:32.489Z,16.70
2022-10-23T22:50:59.140Z,16.70
2022-10-23T22:53:26.095Z,16.70
2022-10-23T22:55:53.618Z,16.70
2022-10-23T22:58:20.377Z,16.70
2022-10-23T23:00:47.222Z,16.70
2022-10-23T23:03:13.975Z,16.70
2022-10-23T23:08:08.669Z,16.70
2022-10-23T23:10:35.468Z,16.70
2022-10-23T23:13:02.091Z,16.70
2022-10-23T23:15:28.830Z,16.70
2022-10-23T23:17:55.509Z,16.70
2022-10-23T23:20:22.201Z,16.60
2022-10-23T23:22:48.916Z,16.50
2022-10-23T23:25:15.686Z,16.50
2022-10-23T23:27:42.360Z,16.50
2022-10-23T23:30:09.313Z,16.50
2022-10-23T23:32:36.337Z,16.50
2022-10-23T23:35:03.238Z,16.40
2022-10-23T23:37:29.936Z,16.40
2022-10-23T23:39:56.636Z,16.40
2022-10-23T23:42:23.313Z,16.40
2022-10-23T23:44:56.051Z,16.50
2022-10-23T23:47:36.659Z,16.50
2022-10-23T23:50:04.190Z,16.50
2022-10-23T23:52:30.881Z,16.40
2022-10-23T23:54:57.535Z,16.40
2022-10-23T23:57:24.225Z,16.40
2022-10-23T23:59:50.877Z,16.40
